Royal, Nebraska
Current Conditions -  °F | °C
As of 11:35 AM on Thursday 30 Oct 2014 (Local Time) from KONL Reporting Station
Clear Clear  
Wind Chill: 52°   Ceiling: Unl
Heat Index: 52°   Visibility: 10mi
Dew Point: 40°   Wind: 23mph
Humidity: 63%   Direction: 330°NNW
Pressure: 30.19"   Gusts: 33mph
Location:  42.33°N, 98.13°W
Report Text: KONL 301635Z AUTO 33020G29KT 10SM CLR 11/04 A3019 RMK AO2 T01110044
Loading
Personal Weather Stations






























Interactive Weather Map
Tropical Storm Tracking
New forecast layout! Learn more

10-Day Weather Forecast

Advertisements
Track Severe Weather on mobile